Terminal Aerodrome Forecast
Issued by NWS

Home | Current Version | Previous Version | Text Only | Print | Product List | Glossary On
Versions: 1 2 3 4 5 6 7 8 9 10 11 12 13 14
000
FTUS43 KDTX 181100
TAFMBS
TAF
KMBS 181120Z 1812/1912 05009KT P6SM BKN018
     FM181900 05008KT P6SM BKN040
     FM182300 03004KT P6SM SKC=

USA.gov is the U.S. government's official web portal to all federal, state and local government web resources and services.